sensor_id;sensor_type;location;lat;lon;timestamp;temperature;humidity
44277;DHT22;29973;43.742;1.236;2023-11-19T00:02:19;6.00;99.90
44277;DHT22;29973;43.742;1.236;2023-11-19T00:04:45;5.90;99.90
44277;DHT22;29973;43.742;1.236;2023-11-19T00:07:10;5.90;99.90
44277;DHT22;29973;43.742;1.236;2023-11-19T00:09:38;5.90;99.90
44277;DHT22;29973;43.742;1.236;2023-11-19T00:12:05;5.80;99.90
44277;DHT22;29973;43.742;1.236;2023-11-19T00:14:31;5.70;99.90
44277;DHT22;29973;43.742;1.236;2023-11-19T00:16:57;5.80;99.90
44277;DHT22;29973;43.742;1.236;2023-11-19T00:19:23;5.80;99.90
44277;DHT22;29973;43.742;1.236;2023-11-19T00:21:49;5.70;99.90
44277;DHT22;29973;43.742;1.236;2023-11-19T00:24:14;5.70;99.90
44277;DHT22;29973;43.742;1.236;2023-11-19T00:26:42;5.60;99.90
44277;DHT22;29973;43.742;1.236;2023-11-19T00:29:08;5.60;99.90
44277;DHT22;29973;43.742;1.236;2023-11-19T00:31:33;5.70;99.90
44277;DHT22;29973;43.742;1.236;2023-11-19T00:33:59;5.90;99.90
44277;DHT22;29973;43.742;1.236;2023-11-19T00:36:25;6.30;99.90
44277;DHT22;29973;43.742;1.236;2023-11-19T00:38:51;6.30;99.90
44277;DHT22;29973;43.742;1.236;2023-11-19T00:41:20;6.00;99.90
44277;DHT22;29973;43.742;1.236;2023-11-19T00:43:46;5.90;99.90
44277;DHT22;29973;43.742;1.236;2023-11-19T00:46:12;5.80;99.90
44277;DHT22;29973;43.742;1.236;2023-11-19T00:48:42;5.70;99.90
44277;DHT22;29973;43.742;1.236;2023-11-19T00:51:07;5.80;99.90
44277;DHT22;29973;43.742;1.236;2023-11-19T00:53:33;5.80;99.90
44277;DHT22;29973;43.742;1.236;2023-11-19T00:56:01;5.80;99.90
44277;DHT22;29973;43.742;1.236;2023-11-19T00:58:27;5.70;99.90
44277;DHT22;29973;43.742;1.236;2023-11-19T01:00:53;5.70;99.90
44277;DHT22;29973;43.742;1.236;2023-11-19T01:03:18;5.80;99.90
44277;DHT22;29973;43.742;1.236;2023-11-19T01:05:44;5.70;99.90
44277;DHT22;29973;43.742;1.236;2023-11-19T01:08:12;5.70;99.90
44277;DHT22;29973;43.742;1.236;2023-11-19T01:10:37;5.70;99.90
44277;DHT22;29973;43.742;1.236;2023-11-19T01:13:03;5.60;99.90
44277;DHT22;29973;43.742;1.236;2023-11-19T01:15:32;5.70;99.90
44277;DHT22;29973;43.742;1.236;2023-11-19T01:17:58;5.70;99.90
44277;DHT22;29973;43.742;1.236;2023-11-19T01:20:24;5.70;99.90
44277;DHT22;29973;43.742;1.236;2023-11-19T01:22:50;5.90;99.90
44277;DHT22;29973;43.742;1.236;2023-11-19T01:25:16;5.80;99.90
44277;DHT22;29973;43.742;1.236;2023-11-19T01:27:42;5.60;99.90
44277;DHT22;29973;43.742;1.236;2023-11-19T01:30:08;5.50;99.90
44277;DHT22;29973;43.742;1.236;2023-11-19T01:32:40;5.40;99.90
44277;DHT22;29973;43.742;1.236;2023-11-19T01:35:06;5.50;99.90
44277;DHT22;29973;43.742;1.236;2023-11-19T01:37:33;5.50;99.90
44277;DHT22;29973;43.742;1.236;2023-11-19T01:40:00;5.50;99.90
44277;DHT22;29973;43.742;1.236;2023-11-19T01:42:28;5.30;99.90
44277;DHT22;29973;43.742;1.236;2023-11-19T01:44:58;5.30;99.90
44277;DHT22;29973;43.742;1.236;2023-11-19T01:47:25;5.30;99.90
44277;DHT22;29973;43.742;1.236;2023-11-19T01:49:52;5.30;99.90
44277;DHT22;29973;43.742;1.236;2023-11-19T01:52:18;5.40;99.90
44277;DHT22;29973;43.742;1.236;2023-11-19T01:54:45;5.20;99.90
44277;DHT22;29973;43.742;1.236;2023-11-19T01:57:10;5.00;99.90
44277;DHT22;29973;43.742;1.236;2023-11-19T01:59:37;5.30;99.90
44277;DHT22;29973;43.742;1.236;2023-11-19T02:02:05;5.20;99.90
44277;DHT22;29973;43.742;1.236;2023-11-19T02:04:31;5.10;99.90
44277;DHT22;29973;43.742;1.236;2023-11-19T02:06:58;5.20;99.90
44277;DHT22;29973;43.742;1.236;2023-11-19T02:09:24;5.40;99.90
44277;DHT22;29973;43.742;1.236;2023-11-19T02:11:50;5.40;99.90
44277;DHT22;29973;43.742;1.236;2023-11-19T02:14:17;5.30;99.90
44277;DHT22;29973;43.742;1.236;2023-11-19T02:16:44;5.10;99.90
44277;DHT22;29973;43.742;1.236;2023-11-19T02:19:09;5.20;99.90
44277;DHT22;29973;43.742;1.236;2023-11-19T02:21:37;5.20;99.90
44277;DHT22;29973;43.742;1.236;2023-11-19T02:24:08;5.10;99.90
44277;DHT22;29973;43.742;1.236;2023-11-19T02:26:46;5.10;99.90
44277;DHT22;29973;43.742;1.236;2023-11-19T02:29:13;5.20;99.90
44277;DHT22;29973;43.742;1.236;2023-11-19T02:31:39;5.20;99.90
44277;DHT22;29973;43.742;1.236;2023-11-19T02:34:05;5.30;99.90
44277;DHT22;29973;43.742;1.236;2023-11-19T02:36:31;5.30;99.90
44277;DHT22;29973;43.742;1.236;2023-11-19T02:38:58;5.20;99.90
44277;DHT22;29973;43.742;1.236;2023-11-19T02:41:23;5.20;99.90
44277;DHT22;29973;43.742;1.236;2023-11-19T02:43:49;4.90;99.90
44277;DHT22;29973;43.742;1.236;2023-11-19T02:46:15;5.00;99.90
44277;DHT22;29973;43.742;1.236;2023-11-19T02:48:43;5.00;99.90
44277;DHT22;29973;43.742;1.236;2023-11-19T02:51:11;5.10;99.90
44277;DHT22;29973;43.742;1.236;2023-11-19T02:53:37;5.00;99.90
44277;DHT22;29973;43.742;1.236;2023-11-19T02:56:05;4.90;99.90
44277;DHT22;29973;43.742;1.236;2023-11-19T02:58:43;4.80;99.90
44277;DHT22;29973;43.742;1.236;2023-11-19T03:01:10;5.00;99.90
44277;DHT22;29973;43.742;1.236;2023-11-19T03:03:44;4.90;99.90
44277;DHT22;29973;43.742;1.236;2023-11-19T03:06:19;4.80;99.90
44277;DHT22;29973;43.742;1.236;2023-11-19T03:08:45;4.90;99.90
44277;DHT22;29973;43.742;1.236;2023-11-19T03:11:10;4.90;99.90
44277;DHT22;29973;43.742;1.236;2023-11-19T03:13:36;4.80;99.90
44277;DHT22;29973;43.742;1.236;2023-11-19T03:16:02;4.60;99.90
44277;DHT22;29973;43.742;1.236;2023-11-19T03:18:27;4.60;99.90
44277;DHT22;29973;43.742;1.236;2023-11-19T03:20:53;4.70;99.90
44277;DHT22;29973;43.742;1.236;2023-11-19T03:23:19;4.60;99.90
44277;DHT22;29973;43.742;1.236;2023-11-19T03:25:45;4.60;99.90
44277;DHT22;29973;43.742;1.236;2023-11-19T03:28:11;4.70;99.90
44277;DHT22;29973;43.742;1.236;2023-11-19T03:30:36;4.70;99.90
44277;DHT22;29973;43.742;1.236;2023-11-19T03:33:02;4.70;99.90
44277;DHT22;29973;43.742;1.236;2023-11-19T03:35:28;4.70;99.90
44277;DHT22;29973;43.742;1.236;2023-11-19T03:37:54;4.80;99.90
44277;DHT22;29973;43.742;1.236;2023-11-19T03:40:20;4.90;99.90
44277;DHT22;29973;43.742;1.236;2023-11-19T03:42:46;5.20;99.90
44277;DHT22;29973;43.742;1.236;2023-11-19T03:45:12;4.90;99.90
44277;DHT22;29973;43.742;1.236;2023-11-19T03:47:37;4.80;99.90
44277;DHT22;29973;43.742;1.236;2023-11-19T03:50:04;4.80;99.90
44277;DHT22;29973;43.742;1.236;2023-11-19T03:52:30;4.70;99.90
44277;DHT22;29973;43.742;1.236;2023-11-19T03:54:56;4.70;99.90
44277;DHT22;29973;43.742;1.236;2023-11-19T03:57:23;4.70;99.90
44277;DHT22;29973;43.742;1.236;2023-11-19T03:59:49;4.90;99.90
44277;DHT22;29973;43.742;1.236;2023-11-19T04:02:15;4.80;99.90
44277;DHT22;29973;43.742;1.236;2023-11-19T04:04:41;4.60;99.90
44277;DHT22;29973;43.742;1.236;2023-11-19T04:07:08;4.70;99.90
44277;DHT22;29973;43.742;1.236;2023-11-19T04:09:33;5.10;99.90
44277;DHT22;29973;43.742;1.236;2023-11-19T04:12:00;5.10;99.90
44277;DHT22;29973;43.742;1.236;2023-11-19T04:14:26;4.90;99.90
44277;DHT22;29973;43.742;1.236;2023-11-19T04:16:52;4.90;99.90
44277;DHT22;29973;43.742;1.236;2023-11-19T04:19:18;4.80;99.90
44277;DHT22;29973;43.742;1.236;2023-11-19T04:21:44;4.70;99.90
44277;DHT22;29973;43.742;1.236;2023-11-19T04:24:10;4.70;99.90
44277;DHT22;29973;43.742;1.236;2023-11-19T04:26:43;4.60;99.90
44277;DHT22;29973;43.742;1.236;2023-11-19T04:29:12;4.80;99.90
44277;DHT22;29973;43.742;1.236;2023-11-19T04:31:38;4.80;99.90
44277;DHT22;29973;43.742;1.236;2023-11-19T04:34:04;4.80;99.90
44277;DHT22;29973;43.742;1.236;2023-11-19T04:36:30;4.80;99.90
44277;DHT22;29973;43.742;1.236;2023-11-19T04:38:56;4.80;99.90
44277;DHT22;29973;43.742;1.236;2023-11-19T04:41:21;4.70;99.90
44277;DHT22;29973;43.742;1.236;2023-11-19T04:43:47;4.60;99.90
44277;DHT22;29973;43.742;1.236;2023-11-19T04:46:13;4.70;99.90
44277;DHT22;29973;43.742;1.236;2023-11-19T04:48:38;4.80;99.90
44277;DHT22;29973;43.742;1.236;2023-11-19T04:51:07;4.80;99.90
44277;DHT22;29973;43.742;1.236;2023-11-19T04:53:35;4.70;99.90
44277;DHT22;29973;43.742;1.236;2023-11-19T04:56:00;4.60;99.90
44277;DHT22;29973;43.742;1.236;2023-11-19T04:58:29;4.40;99.90
44277;DHT22;29973;43.742;1.236;2023-11-19T05:00:54;4.40;99.90
44277;DHT22;29973;43.742;1.236;2023-11-19T05:03:20;4.50;99.90
44277;DHT22;29973;43.742;1.236;2023-11-19T05:05:48;4.50;99.90
44277;DHT22;29973;43.742;1.236;2023-11-19T05:08:14;4.60;99.90
44277;DHT22;29973;43.742;1.236;2023-11-19T05:10:39;4.50;99.90
44277;DHT22;29973;43.742;1.236;2023-11-19T05:13:05;4.60;99.90
44277;DHT22;29973;43.742;1.236;2023-11-19T05:15:31;4.60;99.90
44277;DHT22;29973;43.742;1.236;2023-11-19T05:17:57;4.70;99.90
44277;DHT22;29973;43.742;1.236;2023-11-19T05:20:22;4.70;99.90
44277;DHT22;29973;43.742;1.236;2023-11-19T05:22:49;4.70;99.90
44277;DHT22;29973;43.742;1.236;2023-11-19T05:25:18;4.70;99.90
44277;DHT22;29973;43.742;1.236;2023-11-19T05:27:45;4.60;99.90
44277;DHT22;29973;43.742;1.236;2023-11-19T05:30:11;4.60;99.90
44277;DHT22;29973;43.742;1.236;2023-11-19T05:32:37;4.50;99.90
44277;DHT22;29973;43.742;1.236;2023-11-19T05:35:03;4.70;99.90
44277;DHT22;29973;43.742;1.236;2023-11-19T05:37:28;4.70;99.90
44277;DHT22;29973;43.742;1.236;2023-11-19T05:39:54;4.80;99.90
44277;DHT22;29973;43.742;1.236;2023-11-19T05:42:20;4.80;99.90
44277;DHT22;29973;43.742;1.236;2023-11-19T05:44:45;4.80;99.90
44277;DHT22;29973;43.742;1.236;2023-11-19T05:47:11;4.70;99.90
44277;DHT22;29973;43.742;1.236;2023-11-19T05:49:37;4.70;99.90
44277;DHT22;29973;43.742;1.236;2023-11-19T05:52:03;4.90;99.90
44277;DHT22;29973;43.742;1.236;2023-11-19T05:54:32;4.70;99.90
44277;DHT22;29973;43.742;1.236;2023-11-19T05:57:04;4.50;99.90
44277;DHT22;29973;43.742;1.236;2023-11-19T05:59:30;4.60;99.90
44277;DHT22;29973;43.742;1.236;2023-11-19T06:01:57;4.70;99.90
44277;DHT22;29973;43.742;1.236;2023-11-19T06:04:23;4.80;99.90
44277;DHT22;29973;43.742;1.236;2023-11-19T06:06:49;4.70;99.90
44277;DHT22;29973;43.742;1.236;2023-11-19T06:09:14;4.60;99.90
44277;DHT22;29973;43.742;1.236;2023-11-19T06:11:40;4.60;99.90
44277;DHT22;29973;43.742;1.236;2023-11-19T06:14:06;4.70;99.90
44277;DHT22;29973;43.742;1.236;2023-11-19T06:16:32;4.70;99.90
44277;DHT22;29973;43.742;1.236;2023-11-19T06:18:58;4.80;99.90
44277;DHT22;29973;43.742;1.236;2023-11-19T06:21:24;5.00;99.90
44277;DHT22;29973;43.742;1.236;2023-11-19T06:23:50;5.10;99.90
44277;DHT22;29973;43.742;1.236;2023-11-19T06:26:17;5.30;99.90
44277;DHT22;29973;43.742;1.236;2023-11-19T06:28:43;5.30;99.90
44277;DHT22;29973;43.742;1.236;2023-11-19T06:31:10;5.10;99.90
44277;DHT22;29973;43.742;1.236;2023-11-19T06:33:35;5.00;99.90
44277;DHT22;29973;43.742;1.236;2023-11-19T06:36:01;4.90;99.90
44277;DHT22;29973;43.742;1.236;2023-11-19T06:38:27;4.90;99.90
44277;DHT22;29973;43.742;1.236;2023-11-19T06:40:52;4.90;99.90
44277;DHT22;29973;43.742;1.236;2023-11-19T06:43:18;4.70;99.90
44277;DHT22;29973;43.742;1.236;2023-11-19T06:45:44;4.70;99.90
44277;DHT22;29973;43.742;1.236;2023-11-19T06:48:09;4.70;99.90
44277;DHT22;29973;43.742;1.236;2023-11-19T06:50:35;4.70;99.90
44277;DHT22;29973;43.742;1.236;2023-11-19T06:53:01;4.70;99.90
44277;DHT22;29973;43.742;1.236;2023-11-19T06:55:27;4.50;99.90
44277;DHT22;29973;43.742;1.236;2023-11-19T06:57:53;4.50;99.90
44277;DHT22;29973;43.742;1.236;2023-11-19T07:00:18;4.50;99.90
44277;DHT22;29973;43.742;1.236;2023-11-19T07:02:44;4.50;99.90
44277;DHT22;29973;43.742;1.236;2023-11-19T07:05:10;4.50;99.90
44277;DHT22;29973;43.742;1.236;2023-11-19T07:07:37;4.60;99.90
44277;DHT22;29973;43.742;1.236;2023-11-19T07:10:03;4.60;99.90
44277;DHT22;29973;43.742;1.236;2023-11-19T07:12:30;4.70;99.90
44277;DHT22;29973;43.742;1.236;2023-11-19T07:14:55;4.70;99.90
44277;DHT22;29973;43.742;1.236;2023-11-19T07:17:21;4.60;99.90
44277;DHT22;29973;43.742;1.236;2023-11-19T07:19:50;4.60;99.90
44277;DHT22;29973;43.742;1.236;2023-11-19T07:22:16;4.60;99.90
44277;DHT22;29973;43.742;1.236;2023-11-19T07:24:42;4.60;99.90
44277;DHT22;29973;43.742;1.236;2023-11-19T07:27:08;4.70;99.90
44277;DHT22;29973;43.742;1.236;2023-11-19T07:29:35;4.90;99.90
44277;DHT22;29973;43.742;1.236;2023-11-19T07:32:00;4.90;99.90
44277;DHT22;29973;43.742;1.236;2023-11-19T07:34:27;4.90;99.90
44277;DHT22;29973;43.742;1.236;2023-11-19T07:36:54;5.00;99.90
44277;DHT22;29973;43.742;1.236;2023-11-19T07:39:22;5.10;99.90
44277;DHT22;29973;43.742;1.236;2023-11-19T07:41:48;5.20;99.90
44277;DHT22;29973;43.742;1.236;2023-11-19T07:44:15;5.30;99.90
44277;DHT22;29973;43.742;1.236;2023-11-19T07:46:40;5.50;99.90
44277;DHT22;29973;43.742;1.236;2023-11-19T07:49:07;5.60;99.90
44277;DHT22;29973;43.742;1.236;2023-11-19T07:51:33;5.70;99.90
44277;DHT22;29973;43.742;1.236;2023-11-19T07:53:59;5.90;99.90
44277;DHT22;29973;43.742;1.236;2023-11-19T07:56:24;6.00;99.90
44277;DHT22;29973;43.742;1.236;2023-11-19T07:58:50;6.10;99.90
44277;DHT22;29973;43.742;1.236;2023-11-19T08:01:16;6.20;99.90
44277;DHT22;29973;43.742;1.236;2023-11-19T08:03:42;6.30;99.90
44277;DHT22;29973;43.742;1.236;2023-11-19T08:06:08;6.50;99.90
44277;DHT22;29973;43.742;1.236;2023-11-19T08:08:33;6.60;99.90
44277;DHT22;29973;43.742;1.236;2023-11-19T08:11:00;6.80;99.90
44277;DHT22;29973;43.742;1.236;2023-11-19T08:13:26;6.90;99.90
44277;DHT22;29973;43.742;1.236;2023-11-19T08:15:52;7.20;99.90
44277;DHT22;29973;43.742;1.236;2023-11-19T08:18:18;7.40;99.90
44277;DHT22;29973;43.742;1.236;2023-11-19T08:20:44;7.40;99.90
44277;DHT22;29973;43.742;1.236;2023-11-19T08:23:11;7.50;99.90
44277;DHT22;29973;43.742;1.236;2023-11-19T08:25:36;7.60;99.90
44277;DHT22;29973;43.742;1.236;2023-11-19T08:28:02;7.80;99.90
44277;DHT22;29973;43.742;1.236;2023-11-19T08:30:29;7.90;99.90
44277;DHT22;29973;43.742;1.236;2023-11-19T08:32:55;8.00;99.90
44277;DHT22;29973;43.742;1.236;2023-11-19T08:35:21;8.10;99.90
44277;DHT22;29973;43.742;1.236;2023-11-19T08:37:47;8.20;99.90
44277;DHT22;29973;43.742;1.236;2023-11-19T08:40:13;8.30;99.90
44277;DHT22;29973;43.742;1.236;2023-11-19T08:42:40;8.40;99.90
44277;DHT22;29973;43.742;1.236;2023-11-19T08:45:07;8.70;99.90
44277;DHT22;29973;43.742;1.236;2023-11-19T08:47:35;9.00;99.90
44277;DHT22;29973;43.742;1.236;2023-11-19T08:50:01;9.20;99.90
44277;DHT22;29973;43.742;1.236;2023-11-19T08:52:27;9.40;99.90
44277;DHT22;29973;43.742;1.236;2023-11-19T08:54:53;9.50;99.90
44277;DHT22;29973;43.742;1.236;2023-11-19T08:57:18;9.50;99.90
44277;DHT22;29973;43.742;1.236;2023-11-19T08:59:44;9.70;99.90
44277;DHT22;29973;43.742;1.236;2023-11-19T09:02:11;10.40;99.90
44277;DHT22;29973;43.742;1.236;2023-11-19T09:04:37;11.70;99.90
44277;DHT22;29973;43.742;1.236;2023-11-19T09:07:02;12.70;99.90
44277;DHT22;29973;43.742;1.236;2023-11-19T09:09:29;13.60;99.90
44277;DHT22;29973;43.742;1.236;2023-11-19T09:11:55;14.10;99.90
44277;DHT22;29973;43.742;1.236;2023-11-19T09:14:21;13.60;99.90
44277;DHT22;29973;43.742;1.236;2023-11-19T09:16:51;14.10;99.90
44277;DHT22;29973;43.742;1.236;2023-11-19T09:19:17;15.20;99.90
44277;DHT22;29973;43.742;1.236;2023-11-19T09:21:43;15.60;99.90
44277;DHT22;29973;43.742;1.236;2023-11-19T09:24:09;16.10;99.90
44277;DHT22;29973;43.742;1.236;2023-11-19T09:26:35;16.40;99.90
44277;DHT22;29973;43.742;1.236;2023-11-19T09:29:01;16.80;99.90
44277;DHT22;29973;43.742;1.236;2023-11-19T09:31:27;16.60;99.90
44277;DHT22;29973;43.742;1.236;2023-11-19T09:33:53;17.00;99.90
44277;DHT22;29973;43.742;1.236;2023-11-19T09:36:19;17.90;99.90
44277;DHT22;29973;43.742;1.236;2023-11-19T09:38:45;18.50;99.90
44277;DHT22;29973;43.742;1.236;2023-11-19T09:41:11;19.60;99.90
44277;DHT22;29973;43.742;1.236;2023-11-19T09:43:42;20.80;99.90
44277;DHT22;29973;43.742;1.236;2023-11-19T09:46:13;21.20;99.90
44277;DHT22;29973;43.742;1.236;2023-11-19T09:48:41;19.70;99.90
44277;DHT22;29973;43.742;1.236;2023-11-19T09:51:09;19.50;99.90
44277;DHT22;29973;43.742;1.236;2023-11-19T09:53:36;19.90;99.90
44277;DHT22;29973;43.742;1.236;2023-11-19T09:56:05;20.50;99.90
44277;DHT22;29973;43.742;1.236;2023-11-19T09:58:32;21.70;99.90
44277;DHT22;29973;43.742;1.236;2023-11-19T10:00:58;22.50;99.90
44277;DHT22;29973;43.742;1.236;2023-11-19T10:03:26;22.30;99.90
44277;DHT22;29973;43.742;1.236;2023-11-19T10:05:55;21.00;99.90
44277;DHT22;29973;43.742;1.236;2023-11-19T10:08:22;20.20;99.90
44277;DHT22;29973;43.742;1.236;2023-11-19T10:10:48;20.40;99.90
44277;DHT22;29973;43.742;1.236;2023-11-19T10:15:43;20.60;99.90
44277;DHT22;29973;43.742;1.236;2023-11-19T10:18:09;22.60;99.90
44277;DHT22;29973;43.742;1.236;2023-11-19T10:20:41;23.70;99.90
44277;DHT22;29973;43.742;1.236;2023-11-19T10:23:07;23.20;99.90
44277;DHT22;29973;43.742;1.236;2023-11-19T10:25:33;22.70;99.90
44277;DHT22;29973;43.742;1.236;2023-11-19T10:27:59;22.80;99.90
44277;DHT22;29973;43.742;1.236;2023-11-19T10:30:29;22.40;99.90
44277;DHT22;29973;43.742;1.236;2023-11-19T10:33:12;22.10;99.90
44277;DHT22;29973;43.742;1.236;2023-11-19T10:35:59;23.40;99.90
44277;DHT22;29973;43.742;1.236;2023-11-19T10:38:27;23.90;99.90
44277;DHT22;29973;43.742;1.236;2023-11-19T10:40:54;23.50;99.90
44277;DHT22;29973;43.742;1.236;2023-11-19T10:43:21;24.10;99.90
44277;DHT22;29973;43.742;1.236;2023-11-19T10:45:50;23.70;99.90
44277;DHT22;29973;43.742;1.236;2023-11-19T10:48:16;24.00;99.90
44277;DHT22;29973;43.742;1.236;2023-11-19T10:50:44;22.90;99.90
44277;DHT22;29973;43.742;1.236;2023-11-19T10:53:11;23.40;99.90
44277;DHT22;29973;43.742;1.236;2023-11-19T10:55:39;25.10;99.90
44277;DHT22;29973;43.742;1.236;2023-11-19T10:58:07;24.50;99.90
44277;DHT22;29973;43.742;1.236;2023-11-19T11:00:45;23.50;99.90
44277;DHT22;29973;43.742;1.236;2023-11-19T11:05:50;24.70;99.90
44277;DHT22;29973;43.742;1.236;2023-11-19T11:08:17;25.80;99.90
44277;DHT22;29973;43.742;1.236;2023-11-19T11:10:44;25.60;99.90
44277;DHT22;29973;43.742;1.236;2023-11-19T11:13:11;25.10;99.90
44277;DHT22;29973;43.742;1.236;2023-11-19T11:15:39;24.60;99.90
44277;DHT22;29973;43.742;1.236;2023-11-19T11:18:08;24.90;99.90
44277;DHT22;29973;43.742;1.236;2023-11-19T11:20:35;25.50;99.90
44277;DHT22;29973;43.742;1.236;2023-11-19T11:26:17;25.30;99.90
44277;DHT22;29973;43.742;1.236;2023-11-19T11:32:08;25.80;99.90
44277;DHT22;29973;43.742;1.236;2023-11-19T11:34:42;26.10;99.90
44277;DHT22;29973;43.742;1.236;2023-11-19T11:38:08;25.00;99.90
44277;DHT22;29973;43.742;1.236;2023-11-19T11:40:15;25.30;99.90
44277;DHT22;29973;43.742;1.236;2023-11-19T11:42:42;26.50;99.90
44277;DHT22;29973;43.742;1.236;2023-11-19T11:45:09;26.70;99.90
44277;DHT22;29973;43.742;1.236;2023-11-19T11:48:04;26.80;99.90
44277;DHT22;29973;43.742;1.236;2023-11-19T11:50:24;26.50;99.90
44277;DHT22;29973;43.742;1.236;2023-11-19T11:55:32;24.90;99.90
44277;DHT22;29973;43.742;1.236;2023-11-19T11:58:00;24.60;99.90
44277;DHT22;29973;43.742;1.236;2023-11-19T12:02:56;24.60;99.90
44277;DHT22;29973;43.742;1.236;2023-11-19T12:05:22;25.30;99.90
44277;DHT22;29973;43.742;1.236;2023-11-19T12:08:01;26.40;99.90
44277;DHT22;29973;43.742;1.236;2023-11-19T12:10:30;25.90;99.90
44277;DHT22;29973;43.742;1.236;2023-11-19T12:13:00;25.90;99.90
44277;DHT22;29973;43.742;1.236;2023-11-19T12:15:26;25.50;99.90
44277;DHT22;29973;43.742;1.236;2023-11-19T12:17:54;25.60;99.90
44277;DHT22;29973;43.742;1.236;2023-11-19T12:20:22;25.30;99.90
44277;DHT22;29973;43.742;1.236;2023-11-19T12:22:49;25.40;99.90
44277;DHT22;29973;43.742;1.236;2023-11-19T12:25:15;25.10;99.90
44277;DHT22;29973;43.742;1.236;2023-11-19T12:27:49;24.80;99.90
44277;DHT22;29973;43.742;1.236;2023-11-19T12:30:26;26.20;99.90
44277;DHT22;29973;43.742;1.236;2023-11-19T12:32:52;27.20;99.90
44277;DHT22;29973;43.742;1.236;2023-11-19T12:35:22;27.50;99.90
44277;DHT22;29973;43.742;1.236;2023-11-19T12:37:52;27.00;99.90
44277;DHT22;29973;43.742;1.236;2023-11-19T12:40:19;25.40;99.90
44277;DHT22;29973;43.742;1.236;2023-11-19T12:42:49;25.80;99.90
44277;DHT22;29973;43.742;1.236;2023-11-19T12:45:15;26.20;99.90
44277;DHT22;29973;43.742;1.236;2023-11-19T12:47:45;25.10;99.90
44277;DHT22;29973;43.742;1.236;2023-11-19T12:50:15;24.90;99.90
44277;DHT22;29973;43.742;1.236;2023-11-19T12:52:43;25.10;99.90
44277;DHT22;29973;43.742;1.236;2023-11-19T12:55:30;25.90;99.90
44277;DHT22;29973;43.742;1.236;2023-11-19T12:57:58;25.70;99.90
44277;DHT22;29973;43.742;1.236;2023-11-19T13:00:25;26.10;99.90
44277;DHT22;29973;43.742;1.236;2023-11-19T13:02:58;26.80;99.90
44277;DHT22;29973;43.742;1.236;2023-11-19T13:05:34;26.10;99.90
44277;DHT22;29973;43.742;1.236;2023-11-19T13:08:07;25.50;99.90
44277;DHT22;29973;43.742;1.236;2023-11-19T13:10:54;25.90;99.90
44277;DHT22;29973;43.742;1.236;2023-11-19T13:13:20;27.50;99.90
44277;DHT22;29973;43.742;1.236;2023-11-19T13:15:46;26.90;99.90
44277;DHT22;29973;43.742;1.236;2023-11-19T13:18:12;26.60;99.90
44277;DHT22;29973;43.742;1.236;2023-11-19T13:20:39;26.50;99.90
44277;DHT22;29973;43.742;1.236;2023-11-19T13:23:06;27.30;99.90
44277;DHT22;29973;43.742;1.236;2023-11-19T13:25:36;26.40;99.90
44277;DHT22;29973;43.742;1.236;2023-11-19T13:28:02;26.90;99.90
44277;DHT22;29973;43.742;1.236;2023-11-19T13:30:28;26.60;99.90
44277;DHT22;29973;43.742;1.236;2023-11-19T13:32:54;26.60;99.90
44277;DHT22;29973;43.742;1.236;2023-11-19T13:35:21;26.30;99.90
44277;DHT22;29973;43.742;1.236;2023-11-19T13:37:47;26.80;99.90
44277;DHT22;29973;43.742;1.236;2023-11-19T13:40:13;26.40;99.90
44277;DHT22;29973;43.742;1.236;2023-11-19T13:42:42;27.20;99.90
44277;DHT22;29973;43.742;1.236;2023-11-19T13:45:11;27.50;99.90
44277;DHT22;29973;43.742;1.236;2023-11-19T13:47:43;27.00;99.90
44277;DHT22;29973;43.742;1.236;2023-11-19T13:50:10;26.80;99.90
44277;DHT22;29973;43.742;1.236;2023-11-19T13:52:38;26.70;99.90
44277;DHT22;29973;43.742;1.236;2023-11-19T13:55:08;27.10;99.90
44277;DHT22;29973;43.742;1.236;2023-11-19T13:57:40;28.00;99.90
44277;DHT22;29973;43.742;1.236;2023-11-19T14:00:08;27.20;99.90
44277;DHT22;29973;43.742;1.236;2023-11-19T14:02:45;28.30;99.90
44277;DHT22;29973;43.742;1.236;2023-11-19T14:05:12;28.50;99.90
44277;DHT22;29973;43.742;1.236;2023-11-19T14:07:39;28.20;99.90
44277;DHT22;29973;43.742;1.236;2023-11-19T14:10:06;28.20;99.90
44277;DHT22;29973;43.742;1.236;2023-11-19T14:12:32;28.70;99.90
44277;DHT22;29973;43.742;1.236;2023-11-19T14:14:58;28.50;99.90
44277;DHT22;29973;43.742;1.236;2023-11-19T14:17:25;28.10;99.90
44277;DHT22;29973;43.742;1.236;2023-11-19T14:19:51;28.60;99.90
44277;DHT22;29973;43.742;1.236;2023-11-19T14:22:17;27.20;99.90
44277;DHT22;29973;43.742;1.236;2023-11-19T14:24:43;26.20;99.90
44277;DHT22;29973;43.742;1.236;2023-11-19T14:27:12;25.90;99.90
44277;DHT22;29973;43.742;1.236;2023-11-19T14:29:38;25.70;99.90
44277;DHT22;29973;43.742;1.236;2023-11-19T14:32:05;25.50;99.90
44277;DHT22;29973;43.742;1.236;2023-11-19T14:34:34;26.40;99.90
44277;DHT22;29973;43.742;1.236;2023-11-19T14:36:59;26.30;99.90
44277;DHT22;29973;43.742;1.236;2023-11-19T14:39:26;27.10;99.90
44277;DHT22;29973;43.742;1.236;2023-11-19T14:41:52;27.10;99.90
44277;DHT22;29973;43.742;1.236;2023-11-19T14:44:23;26.80;99.90
44277;DHT22;29973;43.742;1.236;2023-11-19T14:46:49;26.20;99.90
44277;DHT22;29973;43.742;1.236;2023-11-19T14:49:15;26.80;99.90
44277;DHT22;29973;43.742;1.236;2023-11-19T14:51:41;27.10;99.90
44277;DHT22;29973;43.742;1.236;2023-11-19T14:54:07;26.00;99.90
44277;DHT22;29973;43.742;1.236;2023-11-19T14:56:33;26.60;99.90
44277;DHT22;29973;43.742;1.236;2023-11-19T14:58:59;26.70;99.90
44277;DHT22;29973;43.742;1.236;2023-11-19T15:01:25;27.10;99.90
44277;DHT22;29973;43.742;1.236;2023-11-19T15:03:51;26.10;99.90
44277;DHT22;29973;43.742;1.236;2023-11-19T15:06:17;24.40;99.90
44277;DHT22;29973;43.742;1.236;2023-11-19T15:08:42;22.60;99.90
44277;DHT22;29973;43.742;1.236;2023-11-19T15:11:10;21.50;99.90
44277;DHT22;29973;43.742;1.236;2023-11-19T15:13:37;21.20;99.90
44277;DHT22;29973;43.742;1.236;2023-11-19T15:16:04;20.90;99.90
44277;DHT22;29973;43.742;1.236;2023-11-19T15:18:32;19.60;99.90
44277;DHT22;29973;43.742;1.236;2023-11-19T15:20:58;18.60;99.90
44277;DHT22;29973;43.742;1.236;2023-11-19T15:23:23;17.90;99.90
44277;DHT22;29973;43.742;1.236;2023-11-19T15:25:49;17.10;99.90
44277;DHT22;29973;43.742;1.236;2023-11-19T15:28:15;16.70;99.90
44277;DHT22;29973;43.742;1.236;2023-11-19T15:30:42;16.30;99.90
44277;DHT22;29973;43.742;1.236;2023-11-19T15:33:07;16.20;99.90
44277;DHT22;29973;43.742;1.236;2023-11-19T15:35:34;16.00;99.90
44277;DHT22;29973;43.742;1.236;2023-11-19T15:38:00;15.90;99.90
44277;DHT22;29973;43.742;1.236;2023-11-19T15:40:26;15.80;99.90
44277;DHT22;29973;43.742;1.236;2023-11-19T15:42:53;15.80;99.90
44277;DHT22;29973;43.742;1.236;2023-11-19T15:45:20;15.70;99.90
44277;DHT22;29973;43.742;1.236;2023-11-19T15:47:46;15.70;99.90
44277;DHT22;29973;43.742;1.236;2023-11-19T15:50:12;15.60;99.90
44277;DHT22;29973;43.742;1.236;2023-11-19T15:52:38;15.70;99.90
44277;DHT22;29973;43.742;1.236;2023-11-19T15:55:04;15.50;99.90
44277;DHT22;29973;43.742;1.236;2023-11-19T15:57:29;15.30;99.90